createdAt,value
2017-10-17T00:01:12.376Z,11.30
2017-10-17T00:03:40.001Z,11.30
2017-10-17T00:06:07.679Z,11.40
2017-10-17T00:08:35.299Z,11.40
2017-10-17T00:11:02.933Z,11.40
2017-10-17T00:13:30.605Z,11.30
2017-10-17T00:15:58.230Z,11.20
2017-10-17T00:18:25.857Z,11.10
2017-10-17T00:23:34.661Z,11.10
2017-10-17T00:26:02.356Z,11.00
2017-10-17T00:28:29.980Z,10.90
2017-10-17T00:30:58.534Z,11.00
2017-10-17T00:33:27.110Z,10.90
2017-10-17T00:38:38.491Z,10.90
2017-10-17T00:41:06.116Z,10.90
2017-10-17T00:43:33.759Z,10.90
2017-10-17T00:46:01.444Z,10.80
2017-10-17T00:48:29.072Z,10.70
2017-10-17T00:50:56.711Z,10.60
2017-10-17T00:53:24.407Z,10.60
2017-10-17T00:55:52.042Z,10.70
2017-10-17T01:01:04.135Z,10.50
2017-10-17T01:03:31.770Z,10.60
2017-10-17T01:05:59.394Z,10.70
2017-10-17T01:08:27.103Z,10.70
2017-10-17T01:10:54.728Z,10.60
2017-10-17T01:13:22.360Z,10.50
2017-10-17T01:15:50.048Z,10.50
2017-10-17T01:18:17.684Z,10.50
2017-10-17T01:28:59.445Z,10.40
2017-10-17T01:31:27.791Z,10.30
2017-10-17T01:33:55.417Z,10.40
2017-10-17T01:36:23.104Z,10.40
2017-10-17T01:38:54.687Z,10.40
2017-10-17T01:41:22.320Z,10.40
2017-10-17T01:43:50.021Z,10.40
2017-10-17T01:46:18.612Z,10.30
2017-10-17T01:51:32.684Z,10.40
2017-10-17T01:56:48.571Z,10.10
2017-10-17T01:59:18.266Z,10.10
2017-10-17T02:01:45.877Z,10.20
2017-10-17T02:06:41.252Z,10.10
2017-10-17T02:09:08.845Z,10.20
2017-10-17T02:11:36.472Z,10.20
2017-10-17T02:14:04.170Z,10.00
2017-10-17T02:16:31.797Z,9.90
2017-10-17T02:27:01.452Z,10.00
2017-10-17T02:32:07.891Z,9.90
2017-10-17T02:37:04.965Z,9.90
2017-10-17T02:39:33.505Z,9.90
2017-10-17T02:42:02.076Z,9.80
2017-10-17T02:44:29.708Z,9.70
2017-10-17T02:55:03.651Z,9.70
2017-10-17T02:57:31.365Z,9.80
2017-10-17T02:59:58.985Z,9.80
2017-10-17T03:02:34.429Z,9.80
2017-10-17T03:10:10.512Z,9.60
2017-10-17T03:12:38.136Z,9.60
2017-10-17T03:17:36.131Z,9.70
2017-10-17T03:20:03.754Z,9.70
2017-10-17T03:22:31.447Z,9.70
2017-10-17T03:30:29.666Z,9.70
2017-10-17T03:33:00.055Z,9.70
2017-10-17T03:35:27.679Z,9.70
2017-10-17T03:45:53.757Z,9.60
2017-10-17T03:48:21.392Z,9.70
2017-10-17T03:56:21.145Z,9.50
2017-10-17T03:58:48.851Z,9.60
2017-10-17T04:09:22.175Z,9.60
2017-10-17T04:11:50.779Z,9.50
2017-10-17T04:14:24.241Z,9.50
2017-10-17T04:19:41.339Z,9.40
2017-10-17T04:30:26.728Z,9.60
2017-10-17T04:35:36.767Z,9.40
2017-10-17T04:38:04.397Z,9.40
2017-10-17T04:40:32.014Z,9.40
2017-10-17T04:43:11.507Z,9.40
2017-10-17T05:12:51.054Z,9.50
2017-10-17T05:15:18.773Z,9.50
2017-10-17T05:17:49.404Z,9.50
2017-10-17T05:20:17.814Z,9.30
2017-10-17T05:38:59.516Z,9.10
2017-10-17T05:41:27.141Z,9.00
2017-10-17T05:46:47.724Z,8.90
2017-10-17T05:49:16.925Z,8.90
2017-10-17T05:51:44.565Z,8.90
2017-10-17T05:54:12.199Z,8.90
2017-10-17T05:56:39.886Z,8.90
2017-10-17T06:01:35.239Z,8.80
2017-10-17T06:04:02.961Z,8.80
2017-10-17T06:06:30.581Z,8.70
2017-10-17T06:08:58.252Z,8.60
2017-10-17T06:11:25.949Z,8.70
2017-10-17T06:13:53.573Z,8.70
2017-10-17T06:16:21.236Z,8.60
2017-10-17T06:18:48.933Z,8.70
2017-10-17T06:21:16.545Z,8.70
2017-10-17T06:23:44.165Z,8.70
2017-10-17T06:26:11.858Z,8.80
2017-10-17T06:28:39.479Z,9.00
2017-10-17T06:31:07.103Z,9.10
2017-10-17T06:33:34.804Z,9.20
2017-10-17T06:36:02.429Z,9.30
2017-10-17T06:38:30.064Z,9.40
2017-10-17T06:40:57.749Z,9.40
2017-10-17T06:43:25.373Z,9.70
2017-10-17T06:45:52.997Z,9.90
2017-10-17T06:48:21.652Z,10.20
2017-10-17T06:50:49.280Z,10.40
2017-10-17T06:53:16.909Z,10.60
2017-10-17T06:55:44.615Z,10.80
2017-10-17T06:58:12.241Z,10.90
2017-10-17T07:00:39.889Z,10.90
2017-10-17T07:03:08.519Z,10.90
2017-10-17T07:05:37.103Z,11.00
2017-10-17T07:08:04.726Z,11.30
2017-10-17T07:10:32.401Z,11.50
2017-10-17T07:13:00.030Z,11.80
2017-10-17T07:18:06.864Z,12.40
2017-10-17T07:20:34.508Z,12.70
2017-10-17T07:23:02.176Z,12.70
2017-10-17T07:25:29.881Z,12.60
2017-10-17T07:27:57.518Z,12.80
2017-10-17T07:30:25.160Z,12.90
2017-10-17T07:32:52.853Z,13.10
2017-10-17T07:35:20.501Z,13.30
2017-10-17T07:37:48.137Z,13.60
2017-10-17T07:40:15.864Z,13.80
2017-10-17T07:42:43.496Z,14.00
2017-10-17T07:45:11.133Z,14.10
2017-10-17T07:47:38.827Z,13.80
2017-10-17T07:50:06.465Z,14.00
2017-10-17T07:52:34.093Z,14.20
2017-10-17T07:55:01.786Z,14.60
2017-10-17T07:57:29.411Z,14.80
2017-10-17T07:59:57.051Z,15.10
2017-10-17T08:02:24.777Z,14.80
2017-10-17T08:04:52.417Z,15.30
2017-10-17T08:07:20.043Z,15.10
2017-10-17T08:09:47.729Z,15.00
2017-10-17T08:12:15.366Z,15.40
2017-10-17T08:14:43.014Z,15.70
2017-10-17T08:17:10.700Z,15.90
2017-10-17T08:19:38.353Z,16.00
2017-10-17T08:22:05.994Z,16.10
2017-10-17T08:24:36.749Z,16.30
2017-10-17T08:27:05.399Z,15.00
2017-10-17T08:32:14.370Z,15.70
2017-10-17T08:34:42.017Z,16.10
2017-10-17T08:37:09.797Z,16.50
2017-10-17T08:39:37.509Z,16.70
2017-10-17T08:42:05.154Z,17.00
2017-10-17T08:44:32.797Z,17.30
2017-10-17T08:47:00.502Z,17.10
2017-10-17T08:49:28.141Z,17.00
2017-10-17T08:51:55.794Z,17.40
2017-10-17T08:54:23.490Z,17.60
2017-10-17T08:56:51.129Z,17.60
2017-10-17T08:59:18.758Z,18.20
2017-10-17T09:01:47.275Z,17.60
2017-10-17T09:04:14.910Z,17.40
2017-10-17T09:06:42.550Z,17.60
2017-10-17T09:09:10.274Z,17.40
2017-10-17T09:14:05.603Z,17.20
2017-10-17T09:16:34.313Z,17.50
2017-10-17T09:19:01.959Z,17.00
2017-10-17T09:21:29.622Z,17.90
2017-10-17T09:23:58.153Z,18.40
2017-10-17T09:26:25.799Z,18.10
2017-10-17T09:28:53.434Z,19.10
2017-10-17T09:31:21.133Z,18.20
2017-10-17T09:33:48.767Z,18.30
2017-10-17T09:36:16.401Z,18.80
2017-10-17T09:38:44.101Z,18.40
2017-10-17T09:41:11.749Z,18.60
2017-10-17T09:43:39.384Z,18.10
2017-10-17T09:46:07.102Z,18.50
2017-10-17T09:48:34.736Z,18.90
2017-10-17T09:51:02.369Z,19.10
2017-10-17T09:53:30.094Z,19.40
2017-10-17T09:55:57.741Z,19.70
2017-10-17T10:01:06.538Z,18.70
2017-10-17T10:03:34.180Z,18.40
2017-10-17T10:06:01.822Z,19.20
2017-10-17T10:08:29.519Z,19.70
2017-10-17T10:10:58.105Z,20.50
2017-10-17T10:13:25.749Z,21.10
2017-10-17T10:15:53.442Z,20.70
2017-10-17T10:18:21.091Z,20.80
2017-10-17T10:20:48.732Z,20.80
2017-10-17T10:23:16.429Z,20.70
2017-10-17T10:28:26.275Z,20.40
2017-10-17T10:30:53.915Z,19.60
2017-10-17T10:33:22.420Z,19.50
2017-10-17T10:38:30.221Z,20.70
2017-10-17T10:40:58.816Z,21.30
2017-10-17T10:43:26.460Z,21.30
2017-10-17T10:45:55.065Z,21.40
2017-10-17T10:48:22.780Z,22.00
2017-10-17T10:50:50.441Z,21.90
2017-10-17T10:53:18.083Z,22.20
2017-10-17T10:55:45.783Z,22.40
2017-10-17T10:58:13.456Z,22.70
2017-10-17T11:03:21.883Z,22.70
2017-10-17T11:05:49.530Z,22.60
2017-10-17T11:08:17.174Z,22.20
2017-10-17T11:10:44.903Z,22.70
2017-10-17T11:13:12.546Z,22.40
2017-10-17T11:15:40.188Z,22.00
2017-10-17T11:18:07.888Z,22.30
2017-10-17T11:20:35.545Z,22.90
2017-10-17T11:23:03.236Z,23.10
2017-10-17T11:27:58.611Z,23.60
2017-10-17T11:30:26.259Z,23.70
2017-10-17T11:32:53.964Z,23.50
2017-10-17T11:35:21.601Z,23.10
2017-10-17T11:37:49.258Z,23.30
2017-10-17T11:40:16.952Z,23.70
2017-10-17T11:45:18.261Z,24.40
2017-10-17T11:47:45.905Z,24.00
2017-10-17T11:50:13.545Z,23.70
2017-10-17T11:52:41.230Z,24.20
2017-10-17T11:55:09.696Z,23.90
2017-10-17T11:57:37.342Z,22.80
2017-10-17T12:00:05.021Z,23.50
2017-10-17T12:02:32.657Z,23.70
2017-10-17T12:07:27.982Z,23.80
2017-10-17T12:09:55.638Z,23.60
2017-10-17T12:14:51.855Z,23.50
2017-10-17T12:17:19.488Z,23.40
2017-10-17T12:19:47.136Z,23.10
2017-10-17T12:22:14.845Z,23.30
2017-10-17T12:24:42.465Z,23.10
2017-10-17T12:27:10.115Z,23.00
2017-10-17T12:32:16.903Z,22.70
2017-10-17T12:34:44.629Z,22.90
2017-10-17T12:39:40.366Z,23.60
2017-10-17T12:42:08.913Z,23.40
2017-10-17T12:44:36.540Z,23.50
2017-10-17T12:47:04.175Z,23.50
2017-10-17T12:49:31.892Z,22.60
2017-10-17T12:51:59.525Z,22.50
2017-10-17T12:54:27.167Z,23.20
2017-10-17T12:56:54.861Z,23.60
2017-10-17T12:59:22.491Z,23.80
2017-10-17T13:01:50.126Z,24.00
2017-10-17T13:04:17.813Z,24.50
2017-10-17T13:06:45.447Z,24.10
2017-10-17T13:09:13.826Z,24.20
2017-10-17T13:11:41.541Z,24.30
2017-10-17T13:14:09.188Z,24.20
2017-10-17T13:16:36.820Z,24.00
2017-10-17T13:19:04.509Z,24.50
2017-10-17T13:21:32.141Z,24.70
2017-10-17T13:23:59.808Z,24.60
2017-10-17T13:26:27.508Z,24.40
2017-10-17T13:28:55.153Z,24.00
2017-10-17T13:31:22.793Z,23.70
2017-10-17T13:33:50.482Z,24.00
2017-10-17T13:36:19.058Z,23.40
2017-10-17T13:38:46.690Z,23.20
2017-10-17T13:41:14.408Z,24.00
2017-10-17T13:43:42.049Z,24.60
2017-10-17T13:46:10.513Z,24.50
2017-10-17T13:48:39.075Z,24.60
2017-10-17T13:51:06.731Z,24.10
2017-10-17T13:53:34.361Z,23.70
2017-10-17T13:56:02.077Z,23.90
2017-10-17T14:01:10.875Z,24.40
2017-10-17T14:03:38.542Z,24.60
2017-10-17T14:06:06.179Z,24.40
2017-10-17T14:08:33.905Z,24.20
2017-10-17T14:11:01.533Z,24.20
2017-10-17T14:13:29.168Z,24.20
2017-10-17T14:15:56.861Z,24.50
2017-10-17T14:18:24.510Z,24.10
2017-10-17T14:20:52.143Z,23.80
2017-10-17T14:23:19.842Z,23.90
2017-10-17T14:25:47.472Z,23.00
2017-10-17T14:30:43.559Z,22.60
2017-10-17T14:33:11.178Z,22.60
2017-10-17T14:35:38.804Z,22.60
2017-10-17T14:38:07.309Z,22.70
2017-10-17T14:40:34.942Z,23.00
2017-10-17T14:43:02.645Z,22.80
2017-10-17T14:45:30.342Z,22.80
2017-10-17T14:47:57.981Z,23.10
2017-10-17T14:50:25.629Z,22.70
2017-10-17T14:52:54.183Z,22.90
2017-10-17T14:55:22.642Z,23.00
2017-10-17T14:57:50.296Z,23.10
2017-10-17T15:00:18.015Z,22.90
2017-10-17T15:02:45.665Z,23.00
2017-10-17T15:05:13.306Z,22.80
2017-10-17T15:07:41.004Z,22.80
2017-10-17T15:10:08.643Z,22.90
2017-10-17T15:12:36.277Z,22.80
2017-10-17T15:15:03.993Z,22.80
2017-10-17T15:17:31.637Z,22.70
2017-10-17T15:19:59.333Z,22.60
2017-10-17T15:22:26.974Z,22.60
2017-10-17T15:24:55.339Z,22.40
2017-10-17T15:27:22.984Z,22.40
2017-10-17T15:32:29.779Z,21.70
2017-10-17T15:34:57.478Z,21.80
2017-10-17T15:37:25.113Z,21.80
2017-10-17T15:39:52.749Z,21.70
2017-10-17T15:42:20.473Z,21.40
2017-10-17T15:44:48.118Z,20.90
2017-10-17T15:47:15.757Z,20.60
2017-10-17T15:49:44.313Z,20.60
2017-10-17T15:54:39.584Z,20.30
2017-10-17T15:57:07.298Z,20.30
2017-10-17T16:02:02.585Z,20.00
2017-10-17T16:04:30.281Z,20.10
2017-10-17T16:09:25.578Z,19.80
2017-10-17T16:11:53.277Z,19.90
2017-10-17T16:14:21.842Z,20.00
2017-10-17T16:16:49.470Z,19.90
2017-10-17T16:19:17.166Z,19.90
2017-10-17T16:24:12.483Z,19.70
2017-10-17T16:26:40.161Z,19.60
2017-10-17T16:29:07.800Z,19.50
2017-10-17T16:31:35.437Z,19.50
2017-10-17T16:34:03.123Z,19.20
2017-10-17T16:38:58.406Z,18.90
2017-10-17T16:41:26.089Z,18.60
2017-10-17T16:43:53.744Z,18.80
2017-10-17T16:46:22.269Z,18.90
2017-10-17T16:48:49.991Z,19.00
2017-10-17T16:51:17.634Z,18.90
2017-10-17T16:56:24.448Z,18.60
2017-10-17T16:58:52.081Z,18.60
2017-10-17T17:01:19.721Z,18.40
2017-10-17T17:03:47.425Z,18.30
2017-10-17T17:06:15.058Z,17.80
2017-10-17T17:08:42.699Z,17.60
2017-10-17T17:11:10.426Z,17.50
2017-10-17T17:13:38.069Z,17.60
2017-10-17T17:18:34.313Z,17.30
2017-10-17T17:21:01.944Z,17.20
2017-10-17T17:23:29.590Z,17.30
2017-10-17T17:25:57.316Z,17.00
2017-10-17T17:28:25.013Z,17.20
2017-10-17T17:30:52.653Z,17.00
2017-10-17T17:33:20.369Z,17.20
2017-10-17T17:35:48.014Z,17.30
2017-10-17T17:40:56.352Z,17.20
2017-10-17T17:43:23.984Z,17.30
2017-10-17T17:45:51.646Z,17.20
2017-10-17T17:48:19.361Z,17.00
2017-10-17T17:53:14.668Z,16.90
2017-10-17T17:55:42.411Z,16.80
2017-10-17T17:58:10.058Z,16.80
2017-10-17T18:00:37.689Z,16.80
2017-10-17T18:03:05.399Z,16.60
2017-10-17T18:05:33.038Z,16.60
2017-10-17T18:08:00.828Z,16.60
2017-10-17T18:10:29.240Z,16.40
2017-10-17T18:12:56.911Z,16.30
2017-10-17T18:15:24.569Z,16.00
2017-10-17T18:17:52.288Z,16.00
2017-10-17T18:20:20.781Z,16.10
2017-10-17T18:22:49.400Z,16.20
2017-10-17T18:25:17.120Z,16.10
2017-10-17T18:27:44.757Z,16.20
2017-10-17T18:30:12.383Z,16.10
2017-10-17T18:32:40.084Z,16.00
2017-10-17T18:35:07.755Z,16.00
2017-10-17T18:37:35.381Z,15.90
2017-10-17T18:40:03.119Z,16.10
2017-10-17T18:42:30.748Z,16.10
2017-10-17T18:47:26.090Z,16.00
2017-10-17T18:49:53.693Z,15.80
2017-10-17T18:52:21.414Z,15.70
2017-10-17T18:54:50.040Z,15.70
2017-10-17T19:00:01.611Z,15.60
2017-10-17T19:02:35.205Z,15.80
2017-10-17T19:12:54.946Z,15.60
2017-10-17T19:15:23.352Z,15.60
2017-10-17T19:17:52.048Z,15.60
2017-10-17T19:20:21.786Z,15.70
2017-10-17T19:22:50.867Z,15.50
2017-10-17T19:25:21.543Z,15.40
2017-10-17T19:27:49.590Z,15.40
2017-10-17T19:30:17.279Z,15.30
2017-10-17T19:32:44.931Z,15.10
2017-10-17T19:35:12.631Z,15.00
2017-10-17T19:37:40.302Z,15.00
2017-10-17T19:40:07.924Z,14.90
2017-10-17T19:42:35.604Z,14.80
2017-10-17T19:45:03.225Z,14.80
2017-10-17T19:47:30.952Z,14.80
2017-10-17T19:49:58.744Z,14.70
2017-10-17T19:52:26.402Z,14.80
2017-10-17T19:54:57.679Z,14.80
2017-10-17T19:57:27.001Z,14.60
2017-10-17T19:59:54.837Z,14.50
2017-10-17T20:02:29.052Z,14.40
2017-10-17T20:07:27.789Z,14.40
2017-10-17T20:10:03.026Z,13.90
2017-10-17T20:12:30.352Z,13.60
2017-10-17T20:14:58.478Z,13.70
2017-10-17T20:17:26.362Z,13.90
2017-10-17T20:19:54.729Z,13.70
2017-10-17T20:22:22.607Z,13.70
2017-10-17T20:24:50.477Z,13.70
2017-10-17T20:27:18.547Z,13.80
2017-10-17T20:29:46.253Z,13.70
2017-10-17T20:32:14.957Z,13.60
2017-10-17T20:34:42.786Z,13.50
2017-10-17T20:39:49.695Z,13.70
2017-10-17T20:42:17.325Z,13.80
2017-10-17T20:44:47.190Z,13.70
2017-10-17T20:47:16.262Z,13.70
2017-10-17T20:49:44.928Z,13.70
2017-10-17T20:52:14.206Z,13.60
2017-10-17T20:54:43.164Z,13.60
2017-10-17T20:57:10.988Z,13.50
2017-10-17T20:59:40.384Z,13.60
2017-10-17T21:02:08.060Z,13.50
2017-10-17T21:04:35.760Z,13.50
2017-10-17T21:07:06.047Z,13.20
2017-10-17T21:09:33.160Z,13.00
2017-10-17T21:12:00.921Z,13.00
2017-10-17T21:14:29.544Z,13.00
2017-10-17T21:16:57.233Z,13.20
2017-10-17T21:19:24.885Z,13.10
2017-10-17T21:21:52.565Z,13.10
2017-10-17T21:24:20.272Z,13.00
2017-10-17T21:26:47.942Z,13.00
2017-10-17T21:29:15.567Z,13.20
2017-10-17T21:31:43.264Z,13.30
2017-10-17T21:34:10.893Z,13.50
2017-10-17T21:36:38.538Z,13.40
2017-10-17T21:39:06.261Z,13.30
2017-10-17T21:44:13.073Z,12.90
2017-10-17T21:46:40.751Z,12.80
2017-10-17T21:49:08.402Z,12.60
2017-10-17T21:51:36.803Z,12.50
2017-10-17T21:54:04.455Z,12.30
2017-10-17T21:56:32.120Z,12.20
2017-10-17T21:58:59.880Z,12.10
2017-10-17T22:01:28.488Z,12.10
2017-10-17T22:03:56.124Z,12.00
2017-10-17T22:06:23.899Z,11.80
2017-10-17T22:08:51.556Z,11.80
2017-10-17T22:11:19.160Z,11.90
2017-10-17T22:13:47.020Z,12.00
2017-10-17T22:16:14.622Z,12.10
2017-10-17T22:18:42.259Z,12.10
2017-10-17T22:21:09.949Z,11.70
2017-10-17T22:23:37.591Z,11.60
2017-10-17T22:26:05.230Z,11.60
2017-10-17T22:28:32.922Z,11.40
2017-10-17T22:31:00.560Z,11.50
2017-10-17T22:33:28.346Z,11.30
2017-10-17T22:35:56.999Z,11.20
2017-10-17T22:38:24.638Z,11.30
2017-10-17T22:40:52.304Z,11.10
2017-10-17T22:43:20.013Z,10.90
2017-10-17T22:45:48.469Z,10.80
2017-10-17T22:48:16.971Z,10.80
2017-10-17T22:50:44.685Z,10.90
2017-10-17T22:53:12.331Z,10.90
2017-10-17T22:55:39.975Z,10.70
2017-10-17T22:58:07.678Z,10.80
2017-10-17T23:00:35.327Z,10.70
2017-10-17T23:03:02.970Z,10.70
2017-10-17T23:05:30.662Z,10.60
2017-10-17T23:10:37.493Z,10.50
2017-10-17T23:13:05.140Z,10.70
2017-10-17T23:15:32.781Z,10.90
2017-10-17T23:18:12.324Z,11.00
2017-10-17T23:20:39.966Z,11.00
2017-10-17T23:23:07.605Z,10.80
2017-10-17T23:25:35.310Z,10.80
2017-10-17T23:28:02.958Z,10.60
2017-10-17T23:30:31.577Z,10.70
2017-10-17T23:32:59.294Z,10.60
2017-10-17T23:35:26.929Z,10.60
2017-10-17T23:37:54.571Z,10.60
2017-10-17T23:40:22.286Z,10.60
2017-10-17T23:42:49.913Z,10.50
2017-10-17T23:45:18.507Z,10.40
2017-10-17T23:47:46.209Z,10.30
2017-10-17T23:50:13.856Z,10.40
2017-10-17T23:52:41.535Z,10.60
2017-10-17T23:55:09.234Z,10.70
2017-10-17T23:57:36.896Z,10.80
